createdAt,value
2022-08-12T00:00:28.840Z,966.51
2022-08-12T00:00:47.504Z,966.51
2022-08-12T00:01:19.536Z,966.71
2022-08-12T00:02:20.503Z,966.51
2022-08-12T00:02:51.585Z,966.51
2022-08-12T00:03:22.579Z,966.51
2022-08-12T00:03:53.468Z,966.51
2022-08-12T00:04:24.613Z,966.44
2022-08-12T00:04:55.516Z,966.44
2022-08-12T00:05:26.493Z,966.61
2022-08-12T00:06:04.361Z,966.61
2022-08-12T00:06:29.479Z,966.51
2022-08-12T00:06:59.569Z,966.51
2022-08-12T00:07:30.587Z,966.61
2022-08-12T00:08:01.617Z,966.61
2022-08-12T00:08:36.947Z,966.61
2022-08-12T00:09:03.501Z,966.61
2022-08-12T00:09:34.550Z,966.61
2022-08-12T00:10:05.574Z,966.51
2022-08-12T00:10:36.513Z,966.51
2022-08-12T00:11:08.631Z,966.81
2022-08-12T00:11:39.477Z,966.81
2022-08-12T00:12:09.577Z,966.44
2022-08-12T00:12:40.936Z,966.44
2022-08-12T00:13:11.494Z,966.61
2022-08-12T00:13:42.517Z,966.61
2022-08-12T00:14:13.504Z,966.51
2022-08-12T00:14:44.547Z,966.51
2022-08-12T00:15:27.816Z,966.71
2022-08-12T00:15:46.496Z,966.71
2022-08-12T00:16:17.490Z,966.44
2022-08-12T00:16:49.483Z,966.44
2022-08-12T00:17:19.533Z,966.34
2022-08-12T00:17:50.538Z,966.34
2022-08-12T00:18:21.587Z,966.51
2022-08-12T00:18:52.525Z,966.51
2022-08-12T00:19:23.487Z,966.51
2022-08-12T00:19:54.494Z,966.51
2022-08-12T00:20:25.567Z,966.51
2022-08-12T00:20:56.479Z,966.51
2022-08-12T00:21:27.541Z,966.24
2022-08-12T00:21:59.529Z,966.24
2022-08-12T00:22:29.567Z,966.34
2022-08-12T00:23:00.537Z,966.34
2022-08-12T00:23:31.543Z,966.71
2022-08-12T00:24:02.554Z,966.51
2022-08-12T00:24:33.533Z,966.51
2022-08-12T00:25:04.545Z,966.24
2022-08-12T00:26:01.259Z,966.24
2022-08-12T00:26:37.491Z,966.51
2022-08-12T00:27:09.552Z,966.44
2022-08-12T00:27:43.667Z,966.44
2022-08-12T00:28:10.539Z,966.44
2022-08-12T00:28:41.465Z,966.44
2022-08-12T00:29:12.653Z,966.44
2022-08-12T00:29:45.931Z,966.44
2022-08-12T00:30:26.825Z,966.44
2022-08-12T00:30:45.487Z,966.44
2022-08-12T00:31:16.486Z,966.51
2022-08-12T00:31:47.494Z,966.51
2022-08-12T00:32:19.509Z,966.44
2022-08-12T00:32:54.473Z,966.44
2022-08-12T00:33:20.554Z,966.44
2022-08-12T00:33:52.253Z,966.44
2022-08-12T00:34:22.546Z,966.34
2022-08-12T00:34:53.740Z,966.34
2022-08-12T00:35:28.413Z,966.44
2022-08-12T00:35:55.510Z,966.44
2022-08-12T00:36:32.330Z,966.51
2022-08-12T00:37:00.934Z,966.51
2022-08-12T00:37:29.478Z,966.34
2022-08-12T00:37:59.478Z,966.34
2022-08-12T00:38:30.520Z,966.61
2022-08-12T00:39:01.621Z,966.24
2022-08-12T00:39:32.555Z,966.24
2022-08-12T00:40:04.895Z,966.44
2022-08-12T00:40:34.611Z,966.44
2022-08-12T00:41:05.561Z,966.44
2022-08-12T00:41:36.516Z,966.44
2022-08-12T00:42:07.499Z,966.51
2022-08-12T00:42:39.599Z,966.51
2022-08-12T00:43:09.509Z,966.24
2022-08-12T00:43:40.497Z,966.24
2022-08-12T00:44:11.478Z,966.51
2022-08-12T00:44:42.648Z,966.51
2022-08-12T00:45:25.869Z,966.44
2022-08-12T00:45:44.484Z,966.44
2022-08-12T00:46:15.516Z,966.51
2022-08-12T00:46:46.484Z,966.51
2022-08-12T00:47:25.129Z,966.44
2022-08-12T00:47:49.475Z,966.44
2022-08-12T00:48:19.483Z,966.24
2022-08-12T00:48:50.542Z,966.24
2022-08-12T00:49:21.485Z,966.51
2022-08-12T00:49:52.476Z,966.51
2022-08-12T00:50:23.500Z,966.51
2022-08-12T00:50:54.633Z,966.51
2022-08-12T00:51:25.482Z,966.51
2022-08-12T00:51:56.476Z,966.51
2022-08-12T00:52:27.512Z,966.34
2022-08-12T00:52:59.466Z,966.34
2022-08-12T00:53:29.513Z,966.44
2022-08-12T00:54:00.524Z,966.44
2022-08-12T00:54:32.218Z,966.34
2022-08-12T00:55:02.502Z,966.34
2022-08-12T00:55:33.471Z,966.34
2022-08-12T00:56:04.512Z,966.44
2022-08-12T00:56:35.541Z,966.44
2022-08-12T00:57:06.549Z,966.51
2022-08-12T00:57:37.562Z,966.51
2022-08-12T00:58:09.497Z,966.44
2022-08-12T00:58:39.472Z,966.44
2022-08-12T00:59:10.540Z,966.44
2022-08-12T00:59:41.460Z,966.44
2022-08-12T01:00:25.581Z,966.24
2022-08-12T01:00:46.264Z,966.24
2022-08-12T01:01:16.302Z,966.61
2022-08-12T01:02:02.380Z,966.61
2022-08-12T01:02:17.389Z,966.44
2022-08-12T01:02:47.966Z,966.44
2022-08-12T01:03:19.566Z,966.24
2022-08-12T01:03:49.552Z,966.24
2022-08-12T01:04:25.306Z,966.24
2022-08-12T01:04:51.458Z,966.24
2022-08-12T01:05:22.574Z,966.44
2022-08-12T01:05:53.619Z,966.44
2022-08-12T01:06:24.584Z,966.24
2022-08-12T01:06:55.613Z,966.24
2022-08-12T01:07:26.556Z,966.71
2022-08-12T01:07:57.585Z,966.71
2022-08-12T01:08:29.623Z,966.44
2022-08-12T01:08:59.638Z,966.44
2022-08-12T01:09:30.513Z,966.44
2022-08-12T01:10:01.663Z,966.44
2022-08-12T01:10:33.159Z,966.44
2022-08-12T01:11:03.531Z,966.34
2022-08-12T01:11:34.618Z,966.34
2022-08-12T01:12:05.557Z,966.51
2022-08-12T01:12:36.475Z,966.51
2022-08-12T01:13:19.766Z,966.34
2022-08-12T01:13:39.510Z,966.34
2022-08-12T01:14:09.485Z,966.44
2022-08-12T01:14:42.478Z,966.44
2022-08-12T01:15:23.827Z,966.44
2022-08-12T01:15:42.466Z,966.44
2022-08-12T01:16:13.510Z,966.44
2022-08-12T01:16:44.473Z,966.44
2022-08-12T01:17:15.525Z,966.44
2022-08-12T01:17:46.497Z,966.44
2022-08-12T01:18:17.510Z,966.44
2022-08-12T01:18:49.461Z,966.44
2022-08-12T01:19:19.502Z,966.34
2022-08-12T01:19:50.510Z,966.34
2022-08-12T01:20:21.479Z,966.51
2022-08-12T01:20:52.644Z,966.51
2022-08-12T01:21:23.529Z,966.44
2022-08-12T01:21:54.469Z,966.44
2022-08-12T01:22:25.471Z,966.34
2022-08-12T01:22:56.492Z,966.34
2022-08-12T01:23:27.552Z,966.44
2022-08-12T01:23:59.474Z,966.44
2022-08-12T01:24:31.717Z,966.44
2022-08-12T01:25:00.511Z,966.44
2022-08-12T01:25:31.444Z,966.13
2022-08-12T01:26:02.548Z,966.34
2022-08-12T01:26:33.509Z,966.34
2022-08-12T01:27:07.840Z,966.71
2022-08-12T01:27:35.492Z,966.71
2022-08-12T01:28:06.473Z,966.34
2022-08-12T01:28:37.477Z,966.34
2022-08-12T01:29:09.484Z,966.34
2022-08-12T01:29:39.495Z,966.34
2022-08-12T01:30:22.930Z,966.34
2022-08-12T01:30:41.454Z,966.34
2022-08-12T01:31:16.215Z,966.51
2022-08-12T01:31:43.505Z,966.51
2022-08-12T01:32:14.648Z,966.34
2022-08-12T01:32:45.475Z,966.34
2022-08-12T01:33:16.466Z,966.51
2022-08-12T01:33:47.481Z,966.51
2022-08-12T01:34:35.852Z,966.34
2022-08-12T01:34:49.586Z,966.34
2022-08-12T01:35:20.474Z,966.44
2022-08-12T01:36:07.958Z,966.44
2022-08-12T01:36:22.477Z,966.34
2022-08-12T01:36:53.529Z,966.34
2022-08-12T01:37:24.466Z,966.44
2022-08-12T01:37:55.506Z,966.44
2022-08-12T01:38:29.955Z,966.34
2022-08-12T01:38:57.471Z,966.34
2022-08-12T01:39:29.613Z,966.44
2022-08-12T01:40:36.732Z,966.44
2022-08-12T01:41:01.774Z,966.24
2022-08-12T01:41:32.472Z,966.24
2022-08-12T01:42:03.537Z,966.44
2022-08-12T01:42:34.586Z,966.44
2022-08-12T01:43:05.479Z,966.44
2022-08-12T01:43:36.566Z,966.44
2022-08-12T01:44:07.448Z,966.24
2022-08-12T01:44:39.525Z,966.24
2022-08-12T01:45:21.797Z,966.34
2022-08-12T01:45:43.624Z,966.34
2022-08-12T01:46:11.485Z,966.44
2022-08-12T01:46:42.451Z,966.44
2022-08-12T01:47:13.461Z,966.13
2022-08-12T01:47:44.507Z,966.13
2022-08-12T01:48:15.526Z,966.34
2022-08-12T01:48:46.464Z,966.34
2022-08-12T01:49:17.497Z,966.44
2022-08-12T01:49:49.453Z,966.44
2022-08-12T01:50:19.628Z,966.24
2022-08-12T01:50:50.496Z,966.24
2022-08-12T01:52:12.641Z,966.03
2022-08-12T01:52:23.521Z,966.44
2022-08-12T01:52:54.470Z,966.44
2022-08-12T01:53:25.496Z,966.34
2022-08-12T01:53:56.465Z,966.34
2022-08-12T01:54:27.448Z,966.34
2022-08-12T01:54:59.600Z,966.34
2022-08-12T01:55:29.479Z,966.13
2022-08-12T01:56:00.508Z,966.13
2022-08-12T01:56:31.449Z,966.13
2022-08-12T01:57:02.552Z,966.13
2022-08-12T01:57:58.084Z,966.13
2022-08-12T01:58:04.481Z,966.24
2022-08-12T01:58:35.482Z,966.24
2022-08-12T01:59:06.534Z,966.13
2022-08-12T01:59:37.456Z,966.13
2022-08-12T02:00:22.152Z,966.24
2022-08-12T02:00:44.884Z,966.24
2022-08-12T02:01:10.624Z,966.24
2022-08-12T02:01:41.542Z,966.24
2022-08-12T02:02:12.463Z,966.24
2022-08-12T02:02:43.475Z,966.24
2022-08-12T02:03:14.456Z,966.13
2022-08-12T02:03:45.497Z,966.13
2022-08-12T02:04:16.495Z,966.34
2022-08-12T02:04:47.450Z,966.34
2022-08-12T02:05:19.657Z,966.13
2022-08-12T02:05:49.536Z,966.13
2022-08-12T02:06:20.455Z,966.24
2022-08-12T02:06:51.559Z,966.24
2022-08-12T02:07:22.458Z,966.34
2022-08-12T02:07:53.478Z,966.34
2022-08-12T02:08:24.522Z,966.13
2022-08-12T02:08:55.473Z,966.13
2022-08-12T02:09:26.445Z,966.13
2022-08-12T02:09:57.485Z,966.13
2022-08-12T02:10:49.845Z,966.44
2022-08-12T02:10:59.476Z,966.44
2022-08-12T02:11:30.473Z,965.93
2022-08-12T02:12:03.068Z,966.13
2022-08-12T02:12:32.488Z,966.13
2022-08-12T02:13:03.506Z,966.34
2022-08-12T02:13:49.253Z,966.34
2022-08-12T02:14:05.522Z,966.24
2022-08-12T02:14:36.483Z,966.24
2022-08-12T02:15:19.850Z,966.13
2022-08-12T02:15:39.450Z,966.13
2022-08-12T02:16:09.526Z,966.13
2022-08-12T02:16:40.446Z,966.13
2022-08-12T02:17:11.467Z,965.93
2022-08-12T02:17:55.120Z,965.93
2022-08-12T02:18:13.459Z,966.24
2022-08-12T02:18:44.445Z,966.24
2022-08-12T02:19:22.342Z,966.44
2022-08-12T02:19:46.446Z,966.44
2022-08-12T02:20:17.467Z,966.13
2022-08-12T02:20:52.118Z,966.13
2022-08-12T02:21:19.499Z,966.34
2022-08-12T02:21:50.458Z,966.34
2022-08-12T02:22:21.496Z,966.13
2022-08-12T02:22:52.435Z,966.13
2022-08-12T02:23:23.456Z,966.13
2022-08-12T02:23:54.453Z,966.13
2022-08-12T02:24:25.494Z,966.24
2022-08-12T02:24:56.451Z,966.24
2022-08-12T02:25:27.482Z,966.03
2022-08-12T02:25:59.626Z,966.03
2022-08-12T02:26:29.462Z,966.24
2022-08-12T02:27:00.532Z,966.24
2022-08-12T02:27:31.477Z,966.13
2022-08-12T02:28:07.845Z,966.13
2022-08-12T02:28:33.601Z,966.13
2022-08-12T02:29:04.512Z,966.34
2022-08-12T02:29:35.468Z,966.34
2022-08-12T02:30:18.865Z,966.13
2022-08-12T02:30:41.865Z,966.13
2022-08-12T02:31:09.464Z,966.03
2022-08-12T02:31:39.442Z,966.03
2022-08-12T02:32:10.471Z,966.03
2022-08-12T02:32:41.733Z,966.03
2022-08-12T02:33:12.452Z,966.24
2022-08-12T02:33:43.439Z,966.24
2022-08-12T02:34:14.505Z,966.13
2022-08-12T02:34:45.470Z,966.13
2022-08-12T02:35:16.450Z,966.13
2022-08-12T02:35:47.455Z,966.13
2022-08-12T02:36:19.456Z,966.24
2022-08-12T02:36:49.450Z,966.24
2022-08-12T02:37:20.450Z,966.34
2022-08-12T02:37:51.451Z,966.34
2022-08-12T02:38:22.443Z,966.13
2022-08-12T02:38:54.459Z,966.13
2022-08-12T02:39:24.527Z,966.24
2022-08-12T02:39:55.624Z,966.24
2022-08-12T02:40:26.434Z,966.24
2022-08-12T02:40:57.434Z,966.24
2022-08-12T02:41:29.453Z,966.24
2022-08-12T02:41:59.463Z,966.24
2022-08-12T02:42:30.553Z,966.34
2022-08-12T02:43:01.861Z,966.24
2022-08-12T02:43:32.459Z,966.24
2022-08-12T02:44:03.472Z,965.83
2022-08-12T02:44:34.489Z,965.83
2022-08-12T02:45:17.796Z,966.13
2022-08-12T02:45:36.508Z,966.13
2022-08-12T02:46:13.173Z,966.13
2022-08-12T02:46:39.439Z,966.13
2022-08-12T02:47:55.744Z,966.24
2022-08-12T02:48:11.489Z,965.83
2022-08-12T02:48:42.464Z,965.83
2022-08-12T02:49:13.449Z,965.93
2022-08-12T02:49:44.485Z,965.93
2022-08-12T02:50:15.490Z,966.13
2022-08-12T02:50:46.449Z,966.13
2022-08-12T02:51:17.675Z,966.03
2022-08-12T02:51:49.449Z,966.03
2022-08-12T02:52:19.440Z,965.93
2022-08-12T02:52:50.429Z,965.93
2022-08-12T02:53:21.609Z,966.03
2022-08-12T02:54:02.937Z,966.03
2022-08-12T02:54:23.445Z,965.93
2022-08-12T02:54:54.446Z,965.93
2022-08-12T02:55:28.910Z,965.83
2022-08-12T02:55:56.446Z,965.83
2022-08-12T02:56:27.471Z,966.03
2022-08-12T02:56:59.492Z,966.03
2022-08-12T02:57:29.456Z,965.73
2022-08-12T02:58:00.534Z,965.73
2022-08-12T02:58:33.347Z,966.13
2022-08-12T02:59:02.493Z,966.03
2022-08-12T02:59:33.430Z,966.03
2022-08-12T03:00:16.879Z,966.03
2022-08-12T03:00:35.455Z,966.03
2022-08-12T03:01:06.590Z,966.13
2022-08-12T03:01:47.875Z,966.13
2022-08-12T03:02:09.508Z,966.03
2022-08-12T03:02:39.593Z,966.03
2022-08-12T03:03:10.460Z,965.83
2022-08-12T03:03:41.476Z,965.83
2022-08-12T03:04:20.325Z,966.13
2022-08-12T03:04:44.101Z,966.13
2022-08-12T03:05:14.517Z,965.93
2022-08-12T03:05:45.463Z,965.93
2022-08-12T03:06:16.436Z,965.93
2022-08-12T03:06:47.438Z,965.93
2022-08-12T03:07:19.433Z,966.03
2022-08-12T03:07:56.056Z,966.03
2022-08-12T03:08:31.517Z,965.73
2022-08-12T03:08:53.820Z,965.73
2022-08-12T03:09:22.441Z,966.03
2022-08-12T03:10:05.595Z,966.03
2022-08-12T03:10:36.614Z,965.93
2022-08-12T03:10:55.471Z,965.93
2022-08-12T03:11:26.450Z,966.03
2022-08-12T03:11:57.482Z,966.03
2022-08-12T03:12:32.733Z,965.73
2022-08-12T03:12:59.440Z,965.73
2022-08-12T03:13:30.472Z,965.93
2022-08-12T03:14:01.576Z,966.03
2022-08-12T03:14:32.437Z,966.03
2022-08-12T03:15:15.849Z,966.03
2022-08-12T03:15:34.441Z,966.03
2022-08-12T03:16:05.523Z,966.03
2022-08-12T03:16:36.844Z,966.03
2022-08-12T03:17:07.661Z,965.93
2022-08-12T03:17:39.443Z,965.93
2022-08-12T03:18:26.378Z,965.73
2022-08-12T03:18:43.355Z,965.73
2022-08-12T03:19:11.571Z,965.93
2022-08-12T03:20:09.717Z,965.93
2022-08-12T03:20:13.487Z,966.03
2022-08-12T03:20:44.518Z,966.03
2022-08-12T03:21:15.564Z,965.93
2022-08-12T03:22:05.680Z,965.93
2022-08-12T03:22:17.448Z,966.13
2022-08-12T03:22:49.481Z,966.13
2022-08-12T03:23:29.593Z,965.93
2022-08-12T03:23:50.464Z,965.93
2022-08-12T03:24:21.463Z,965.83
2022-08-12T03:24:52.445Z,965.83
2022-08-12T03:25:23.509Z,965.83
2022-08-12T03:25:54.477Z,965.83
2022-08-12T03:26:25.508Z,965.83
2022-08-12T03:27:00.471Z,965.83
2022-08-12T03:27:27.452Z,965.73
2022-08-12T03:27:59.493Z,965.73
2022-08-12T03:28:29.445Z,965.83
2022-08-12T03:29:00.447Z,965.83
2022-08-12T03:29:31.439Z,965.83
2022-08-12T03:30:14.862Z,965.93
2022-08-12T03:30:33.425Z,965.93
2022-08-12T03:31:04.461Z,965.83
2022-08-12T03:31:35.458Z,965.83
2022-08-12T03:32:06.477Z,965.83
2022-08-12T03:32:37.447Z,965.83
2022-08-12T03:33:09.440Z,965.93
2022-08-12T03:33:39.495Z,965.93
2022-08-12T03:34:10.460Z,966.03
2022-08-12T03:34:41.480Z,966.03
2022-08-12T03:35:39.905Z,965.93
2022-08-12T03:35:43.426Z,965.93
2022-08-12T03:36:14.452Z,965.93
2022-08-12T03:36:45.645Z,965.93
2022-08-12T03:37:16.491Z,966.13
2022-08-12T03:37:47.431Z,966.13
2022-08-12T03:38:19.476Z,965.93
2022-08-12T03:38:49.467Z,965.93
2022-08-12T03:39:35.383Z,966.03
2022-08-12T03:39:56.546Z,966.03
2022-08-12T03:40:22.546Z,966.03
2022-08-12T03:40:53.446Z,966.03
2022-08-12T03:41:24.478Z,966.03
2022-08-12T03:41:55.473Z,966.03
2022-08-12T03:42:28.493Z,966.03
2022-08-12T03:42:57.435Z,966.03
2022-08-12T03:43:29.473Z,966.03
2022-08-12T03:43:59.471Z,966.03
2022-08-12T03:44:30.421Z,965.93
2022-08-12T03:45:13.954Z,966.03
2022-08-12T03:45:32.462Z,966.03
2022-08-12T03:46:03.469Z,966.13
2022-08-12T03:46:34.423Z,966.13
2022-08-12T03:47:05.458Z,966.03
2022-08-12T03:47:36.441Z,966.03
2022-08-12T03:48:07.493Z,965.93
2022-08-12T03:48:39.474Z,965.93
2022-08-12T03:49:09.520Z,966.24
2022-08-12T03:49:40.423Z,966.24
2022-08-12T03:50:11.513Z,966.13
2022-08-12T03:50:42.487Z,966.13
2022-08-12T03:51:13.433Z,966.24
2022-08-12T03:51:44.474Z,966.24
2022-08-12T03:52:15.488Z,966.24
2022-08-12T03:52:46.460Z,966.24
2022-08-12T03:53:17.475Z,966.24
2022-08-12T03:53:49.450Z,966.24
2022-08-12T03:54:19.518Z,966.13
2022-08-12T03:54:50.420Z,966.13
2022-08-12T03:55:22.330Z,966.13
2022-08-12T03:55:52.537Z,966.13
2022-08-12T03:56:23.482Z,965.93
2022-08-12T03:56:54.461Z,965.93
2022-08-12T03:57:25.432Z,966.13
2022-08-12T03:57:56.444Z,966.13
2022-08-12T03:58:27.491Z,966.24
2022-08-12T03:58:59.865Z,966.24
2022-08-12T03:59:29.702Z,966.03
2022-08-12T04:00:13.064Z,966.03
2022-08-12T04:00:31.502Z,965.93
2022-08-12T04:01:02.627Z,966.03
2022-08-12T04:01:33.503Z,966.03
2022-08-12T04:02:04.496Z,966.13
2022-08-12T04:02:35.593Z,966.13
2022-08-12T04:03:12.438Z,965.93
2022-08-12T04:03:37.494Z,965.93
2022-08-12T04:04:09.543Z,966.13
2022-08-12T04:04:39.515Z,966.13
2022-08-12T04:05:10.550Z,966.03
2022-08-12T04:05:55.866Z,966.03
2022-08-12T04:06:12.517Z,966.03
2022-08-12T04:06:43.501Z,966.03
2022-08-12T04:07:14.508Z,966.24
2022-08-12T04:07:58.142Z,966.24
2022-08-12T04:08:16.538Z,966.24
2022-08-12T04:08:47.504Z,966.24
2022-08-12T04:09:19.534Z,966.13
2022-08-12T04:09:49.533Z,966.13
2022-08-12T04:10:20.565Z,966.13
2022-08-12T04:10:51.467Z,966.13
2022-08-12T04:11:22.581Z,966.03
2022-08-12T04:11:53.452Z,966.03
2022-08-12T04:12:26.212Z,965.93
2022-08-12T04:12:55.562Z,965.93
2022-08-12T04:13:26.463Z,966.24
2022-08-12T04:13:57.513Z,966.24
2022-08-12T04:14:29.512Z,966.03
2022-08-12T04:14:59.453Z,966.03
2022-08-12T04:15:42.834Z,966.03
2022-08-12T04:16:01.580Z,966.34
2022-08-12T04:16:32.589Z,966.34
2022-08-12T04:17:03.525Z,966.13
2022-08-12T04:17:34.495Z,966.13
2022-08-12T04:18:07.346Z,966.03
2022-08-12T04:18:36.502Z,966.03
2022-08-12T04:19:07.521Z,966.03
2022-08-12T04:19:39.559Z,966.03
2022-08-12T04:20:09.627Z,966.24
2022-08-12T04:20:40.542Z,966.24
2022-08-12T04:21:11.510Z,966.03
2022-08-12T04:22:01.072Z,966.03
2022-08-12T04:22:13.504Z,966.13
2022-08-12T04:22:44.583Z,966.13
2022-08-12T04:23:16.855Z,966.03
2022-08-12T04:23:48.529Z,966.03
2022-08-12T04:24:17.498Z,966.13
2022-08-12T04:24:50.662Z,966.13
2022-08-12T04:25:19.565Z,965.93
2022-08-12T04:25:50.568Z,965.93
2022-08-12T04:26:21.498Z,966.13
2022-08-12T04:26:52.512Z,966.13
2022-08-12T04:27:23.502Z,966.13
2022-08-12T04:27:54.569Z,966.13
2022-08-12T04:28:25.491Z,965.93
2022-08-12T04:28:56.497Z,965.93
2022-08-12T04:30:21.388Z,965.93
2022-08-12T04:31:00.546Z,966.03
2022-08-12T04:31:31.455Z,966.03
2022-08-12T04:32:02.606Z,966.13
2022-08-12T04:32:33.529Z,966.13
2022-08-12T04:33:04.588Z,966.13
2022-08-12T04:33:35.550Z,966.13
2022-08-12T04:34:06.521Z,966.13
2022-08-12T04:34:37.504Z,966.13
2022-08-12T04:35:09.522Z,966.24
2022-08-12T04:35:39.514Z,966.24
2022-08-12T04:36:10.481Z,965.93
2022-08-12T04:36:41.536Z,965.93
2022-08-12T04:37:12.522Z,966.24
2022-08-12T04:38:00.368Z,966.24
2022-08-12T04:38:14.510Z,966.34
2022-08-12T04:38:45.496Z,966.34
2022-08-12T04:39:16.550Z,966.24
2022-08-12T04:39:47.508Z,966.24
2022-08-12T04:40:28.099Z,966.13
2022-08-12T04:40:49.493Z,966.13
2022-08-12T04:41:20.528Z,966.03
2022-08-12T04:41:58.274Z,966.03
2022-08-12T04:42:22.505Z,965.83
2022-08-12T04:42:53.491Z,965.83
2022-08-12T04:44:00.854Z,966.03
2022-08-12T04:44:26.637Z,966.13
2022-08-12T04:44:57.530Z,966.13
2022-08-12T04:45:41.827Z,966.24
2022-08-12T04:45:59.511Z,966.24
2022-08-12T04:46:33.538Z,966.13
2022-08-12T04:47:01.595Z,966.24
2022-08-12T04:47:32.500Z,966.24
2022-08-12T04:48:03.624Z,966.13
2022-08-12T04:48:34.505Z,966.13
2022-08-12T04:49:05.644Z,966.24
2022-08-12T04:49:36.507Z,966.24
2022-08-12T04:50:27.222Z,966.34
2022-08-12T04:50:39.491Z,966.34
2022-08-12T04:51:09.484Z,966.13
2022-08-12T04:51:40.482Z,966.13
2022-08-12T04:52:11.474Z,966.34
2022-08-12T04:52:42.659Z,966.34
2022-08-12T04:53:13.539Z,966.24
2022-08-12T04:53:44.502Z,966.24
2022-08-12T04:54:17.220Z,966.24
2022-08-12T04:54:46.538Z,966.24
2022-08-12T04:55:17.484Z,966.24
2022-08-12T04:55:49.479Z,966.24
2022-08-12T04:56:19.495Z,966.03
2022-08-12T04:57:04.870Z,966.03
2022-08-12T04:57:21.507Z,966.13
2022-08-12T04:57:52.500Z,966.13
2022-08-12T04:58:30.008Z,966.24
2022-08-12T04:58:54.579Z,966.24
2022-08-12T04:59:25.452Z,966.13
2022-08-12T04:59:56.523Z,966.13
2022-08-12T05:00:39.850Z,966.03
2022-08-12T05:00:59.615Z,966.03
2022-08-12T05:01:29.511Z,965.93
2022-08-12T05:02:00.568Z,965.93
2022-08-12T05:02:31.565Z,966.24
2022-08-12T05:03:02.655Z,965.93
2022-08-12T05:03:46.629Z,965.93
2022-08-12T05:04:04.538Z,966.13
2022-08-12T05:04:35.511Z,966.13
2022-08-12T05:05:06.512Z,966.03
2022-08-12T05:05:37.486Z,966.03
2022-08-12T05:06:09.551Z,966.03
2022-08-12T05:06:39.480Z,966.03
2022-08-12T05:07:10.612Z,966.13
2022-08-12T05:07:53.941Z,966.13
2022-08-12T05:08:12.495Z,966.13
2022-08-12T05:08:43.490Z,966.13
2022-08-12T05:09:14.497Z,966.13
2022-08-12T05:10:00.379Z,966.13
2022-08-12T05:10:16.513Z,966.24
2022-08-12T05:10:47.508Z,966.24
2022-08-12T05:11:19.486Z,965.93
2022-08-12T05:11:53.958Z,965.93
2022-08-12T05:12:20.541Z,966.13
2022-08-12T05:12:51.535Z,966.13
2022-08-12T05:13:22.510Z,966.03
2022-08-12T05:13:53.507Z,966.03
2022-08-12T05:14:24.526Z,966.24
2022-08-12T05:14:55.536Z,966.24
2022-08-12T05:16:03.878Z,966.13
2022-08-12T05:16:32.444Z,966.24
2022-08-12T05:16:59.467Z,966.24
2022-08-12T05:17:30.491Z,966.34
2022-08-12T05:18:02.183Z,966.34
2022-08-12T05:18:32.477Z,966.34
2022-08-12T05:19:03.478Z,966.24
2022-08-12T05:19:34.525Z,966.24
2022-08-12T05:20:05.524Z,966.34
2022-08-12T05:20:36.513Z,966.34
2022-08-12T05:21:07.500Z,966.34
2022-08-12T05:21:39.498Z,966.34
2022-08-12T05:22:09.551Z,966.34
2022-08-12T05:22:40.746Z,966.34
2022-08-12T05:23:13.337Z,966.03
2022-08-12T05:23:42.542Z,966.03
2022-08-12T05:24:13.458Z,966.34
2022-08-12T05:24:44.512Z,966.34
2022-08-12T05:25:15.520Z,966.24
2022-08-12T05:25:46.434Z,966.24
2022-08-12T05:26:17.521Z,966.34
2022-08-12T05:26:49.465Z,966.34
2022-08-12T05:27:19.485Z,965.93
2022-08-12T05:27:58.152Z,965.93
2022-08-12T05:28:21.471Z,966.51
2022-08-12T05:28:52.496Z,966.51
2022-08-12T05:30:07.866Z,966.13
2022-08-12T05:30:37.822Z,966.44
2022-08-12T05:30:56.521Z,966.44
2022-08-12T05:31:47.440Z,966.34
2022-08-12T05:31:59.447Z,966.34
2022-08-12T05:32:29.530Z,966.24
2022-08-12T05:33:00.622Z,966.24
2022-08-12T05:33:31.536Z,966.44
2022-08-12T05:34:02.516Z,966.24
2022-08-12T05:34:33.548Z,966.24
2022-08-12T05:35:04.615Z,966.24
2022-08-12T05:35:35.509Z,966.24
2022-08-12T05:36:06.555Z,966.44
2022-08-12T05:36:37.495Z,966.44
2022-08-12T05:37:09.505Z,966.44
2022-08-12T05:37:39.540Z,966.44
2022-08-12T05:38:10.491Z,966.44
2022-08-12T05:38:41.526Z,966.44
2022-08-12T05:39:12.548Z,966.24
2022-08-12T05:39:43.583Z,966.24
2022-08-12T05:40:14.482Z,966.34
2022-08-12T05:40:45.478Z,966.34
2022-08-12T05:41:16.508Z,966.34
2022-08-12T05:41:47.482Z,966.34
2022-08-12T05:42:19.484Z,966.51
2022-08-12T05:42:49.473Z,966.51
2022-08-12T05:43:20.499Z,966.44
2022-08-12T05:43:51.484Z,966.44
2022-08-12T05:44:22.561Z,966.34
2022-08-12T05:44:53.514Z,966.34
2022-08-12T05:45:39.337Z,966.44
2022-08-12T05:45:55.487Z,966.44
2022-08-12T05:46:26.558Z,966.34
2022-08-12T05:46:57.508Z,966.34
2022-08-12T05:47:36.583Z,966.44
2022-08-12T05:47:59.510Z,966.44
2022-08-12T05:48:30.507Z,966.51
2022-08-12T05:49:01.590Z,966.44
2022-08-12T05:49:32.443Z,966.44
2022-08-12T05:50:03.564Z,966.51
2022-08-12T05:50:34.469Z,966.51
2022-08-12T05:51:05.560Z,966.51
2022-08-12T05:51:39.523Z,966.51
2022-08-12T05:52:07.711Z,966.34
2022-08-12T05:52:39.660Z,966.34
2022-08-12T05:53:09.569Z,966.44
2022-08-12T05:53:40.600Z,966.44
2022-08-12T05:54:11.847Z,966.44
2022-08-12T05:54:57.099Z,966.44
2022-08-12T05:55:13.500Z,966.51
2022-08-12T05:55:44.452Z,966.51
2022-08-12T05:56:15.494Z,966.44
2022-08-12T05:56:46.738Z,966.44
2022-08-12T05:57:17.425Z,966.34
2022-08-12T05:57:49.465Z,966.34
2022-08-12T05:58:19.480Z,966.44
2022-08-12T05:58:50.531Z,966.44
2022-08-12T05:59:21.572Z,966.44
2022-08-12T05:59:52.577Z,966.44
2022-08-12T06:00:36.135Z,966.51
2022-08-12T06:00:54.583Z,966.51
2022-08-12T06:02:11.981Z,966.51
2022-08-12T06:02:27.595Z,966.51
2022-08-12T06:02:59.643Z,966.51
2022-08-12T06:03:29.557Z,966.51
2022-08-12T06:04:00.639Z,966.51
2022-08-12T06:04:31.567Z,966.34
2022-08-12T06:05:02.794Z,966.51
2022-08-12T06:05:33.496Z,966.51
2022-08-12T06:06:04.591Z,966.51
2022-08-12T06:06:39.065Z,966.51
2022-08-12T06:08:00.592Z,966.71
2022-08-12T06:08:09.562Z,966.51
2022-08-12T06:08:39.556Z,966.51
2022-08-12T06:09:10.556Z,966.44
2022-08-12T06:09:41.539Z,966.44
2022-08-12T06:10:12.572Z,966.44
2022-08-12T06:10:43.558Z,966.44
2022-08-12T06:11:14.525Z,966.34
2022-08-12T06:12:04.525Z,966.34
2022-08-12T06:12:16.554Z,966.51
2022-08-12T06:12:47.512Z,966.51
2022-08-12T06:13:28.205Z,966.61
2022-08-12T06:14:20.533Z,966.51
2022-08-12T06:14:51.744Z,966.51
2022-08-12T06:15:34.938Z,966.44
2022-08-12T06:15:53.460Z,966.44
2022-08-12T06:16:24.562Z,966.34
2022-08-12T06:16:55.644Z,966.34
2022-08-12T06:17:26.544Z,966.61
2022-08-12T06:17:57.576Z,966.61
2022-08-12T06:18:29.962Z,966.34
2022-08-12T06:18:59.538Z,966.34
2022-08-12T06:20:26.683Z,966.51
2022-08-12T06:20:33.576Z,966.44
2022-08-12T06:21:03.567Z,966.34
2022-08-12T06:21:34.645Z,966.34
2022-08-12T06:22:05.642Z,966.44
2022-08-12T06:22:36.572Z,966.44
2022-08-12T06:23:07.677Z,966.34
2022-08-12T06:23:42.491Z,966.34
2022-08-12T06:24:09.688Z,966.51
2022-08-12T06:24:40.518Z,966.51
2022-08-12T06:25:18.603Z,966.34
2022-08-12T06:25:42.489Z,966.34
2022-08-12T06:26:13.638Z,966.51
2022-08-12T06:26:44.515Z,966.51
2022-08-12T06:27:15.550Z,966.44
2022-08-12T06:28:07.220Z,966.44
2022-08-12T06:28:17.813Z,966.61
2022-08-12T06:28:49.497Z,966.61
2022-08-12T06:30:07.099Z,966.24
2022-08-12T06:30:37.848Z,966.34
2022-08-12T06:31:14.898Z,966.34
2022-08-12T06:31:54.477Z,966.61
2022-08-12T06:32:27.696Z,966.24
2022-08-12T06:33:04.273Z,966.24
2022-08-12T06:33:55.789Z,966.44
2022-08-12T06:35:26.020Z,966.34
2022-08-12T06:35:47.039Z,966.34
2022-08-12T06:36:02.611Z,966.44